Time;durP1;ratioP1;P1;durP2;ratioP2;P2;SDS_P1;SDS_P2;PMS_P1;PMS_P2;Temp;Humidity;BMP_temperature;BMP_pressure;BME280_temperature;BME280_humidity;BME280_pressure;Samples;Min_cycle;Max_cycle;Signal;HPM_P1;HPM_P2
2023/09/02 00:00:13;;;;;;;81.30;27.67;;;16.60;99.90;;;;;;5037495;28;20247;-83
2023/09/02 00:02:38;;;;;;;79.57;22.10;;;16.50;99.90;;;;;;5019187;28;20169;-82
2023/09/02 00:05:05;;;;;;;79.27;24.30;;;16.60;99.90;;;;;;5037521;28;20449;-83
2023/09/02 00:07:30;;;;;;;78.57;27.07;;;16.50;99.90;;;;;;5037226;28;20173;-83
2023/09/02 00:09:56;;;;;;;82.23;28.40;;;16.60;99.90;;;;;;5037119;28;20931;-83
2023/09/02 00:12:22;;;;;;;83.50;25.23;;;16.60;99.90;;;;;;5037186;28;20164;-82
2023/09/02 00:14:50;;;;;;;77.87;24.90;;;16.50;99.90;;;;;;5019749;28;20168;-83
2023/09/02 00:17:16;;;;;;;78.43;24.50;;;16.50;99.90;;;;;;5036841;28;20246;-83
2023/09/02 00:19:43;;;;;;;78.43;24.50;;;16.50;99.90;;;;;;5037244;28;20949;-82
2023/09/02 00:22:08;;;;;;;77.90;25.70;;;16.40;99.90;;;;;;5018640;28;20544;-82
2023/09/02 00:24:34;;;;;;;76.57;24.80;;;16.50;99.90;;;;;;5037212;28;20539;-83
2023/09/02 00:27:00;;;;;;;80.97;24.67;;;16.40;99.90;;;;;;5036915;28;20247;-83
2023/09/02 00:29:25;;;;;;;78.10;23.63;;;16.30;99.90;;;;;;5036777;28;20157;-83
2023/09/02 00:31:51;;;;;;;76.43;25.00;;;16.30;99.90;;;;;;5036796;28;20687;-83
2023/09/02 00:34:17;;;;;;;75.93;24.30;;;16.20;99.90;;;;;;5037515;28;20206;-83
2023/09/02 00:36:42;;;;;;;77.37;26.30;;;16.20;99.90;;;;;;5037046;28;20525;-83
2023/09/02 00:39:08;;;;;;;78.30;27.00;;;16.20;99.90;;;;;;5036607;28;20702;-82
2023/09/02 00:44:00;;;;;;;77.20;25.90;;;16.00;99.90;;;;;;5089615;22;20698;-83
2023/09/02 00:46:26;;;;;;;77.30;27.70;;;16.00;99.90;;;;;;5016045;28;20178;-83
2023/09/02 00:48:51;;;;;;;79.10;26.00;;;16.00;99.90;;;;;;5016265;28;20892;-83
2023/09/02 00:51:17;;;;;;;83.57;26.20;;;15.90;99.90;;;;;;5033569;28;20192;-82
2023/09/02 00:53:45;;;;;;;76.90;26.53;;;16.00;99.90;;;;;;5036752;28;20672;-82
2023/09/02 00:56:14;;;;;;;78.30;27.63;;;15.90;99.90;;;;;;5018044;28;20176;-83
2023/09/02 00:58:41;;;;;;;79.90;28.83;;;15.80;99.90;;;;;;5036353;28;20450;-82
2023/09/02 01:01:07;;;;;;;79.00;32.80;;;15.80;99.90;;;;;;5035883;28;20447;-83
2023/09/02 01:03:35;;;;;;;80.33;31.53;;;15.80;99.90;;;;;;5037219;28;20400;-82
2023/09/02 01:06:05;;;;;;;83.30;34.20;;;15.80;99.90;;;;;;5039704;28;20445;-83
2023/09/02 01:08:32;;;;;;;77.40;28.10;;;15.80;99.90;;;;;;5022026;28;20419;-82
2023/09/02 01:11:01;;;;;;;79.97;30.83;;;15.90;99.90;;;;;;5040099;28;20431;-83
2023/09/02 01:13:29;;;;;;;79.90;28.80;;;15.80;99.90;;;;;;5039237;28;20405;-82
2023/09/02 01:15:55;;;;;;;81.27;28.60;;;15.90;99.90;;;;;;5038978;28;20401;-82
2023/09/02 01:18:27;;;;;;;78.50;28.33;;;15.90;99.90;;;;;;5039906;28;20507;-82
2023/09/02 01:21:33;;;;;;;80.70;30.83;;;15.90;99.90;;;;;;5039236;28;20195;-83
2023/09/02 01:24:24;;;;;;;80.97;30.60;;;16.00;99.90;;;;;;5039568;28;20375;-82
2023/09/02 01:27:28;;;;;;;81.90;28.10;;;16.10;99.90;;;;;;5039496;28;20398;-82
2023/09/02 01:29:59;;;;;;;79.60;27.30;;;16.10;99.90;;;;;;4940331;29;20426;-82
2023/09/02 01:32:34;;;;;;;79.10;26.70;;;16.10;99.90;;;;;;5023976;28;20400;-82
2023/09/02 01:35:05;;;;;;;79.50;24.13;;;16.10;99.90;;;;;;5039488;28;20416;-82
2023/09/02 01:37:38;;;;;;;81.50;27.93;;;16.10;99.90;;;;;;5039654;28;20371;-82
2023/09/02 01:40:25;;;;;;;83.27;28.37;;;16.10;99.90;;;;;;5038704;28;20439;-82
2023/09/02 01:42:52;;;;;;;84.00;26.67;;;16.00;99.90;;;;;;5038600;28;20943;-82
2023/09/02 01:45:19;;;;;;;80.70;28.10;;;16.00;99.90;;;;;;5038673;28;20806;-82
2023/09/02 01:47:50;;;;;;;82.63;30.50;;;16.00;99.90;;;;;;5021288;28;20457;-83
2023/09/02 01:50:19;;;;;;;85.13;35.37;;;16.00;99.90;;;;;;5038292;28;20422;-82
2023/09/02 01:52:45;;;;;;;85.47;28.07;;;16.00;99.90;;;;;;5038987;28;20402;-82
2023/09/02 01:55:11;;;;;;;92.57;31.60;;;16.00;99.90;;;;;;5038686;28;20402;-82
2023/09/02 01:57:38;;;;;;;90.93;33.33;;;15.90;99.90;;;;;;5038577;28;20418;-82
2023/09/02 02:00:07;;;;;;;83.87;37.93;;;16.00;99.90;;;;;;5038720;28;20425;-83
2023/09/02 02:02:33;;;;;;;98.53;34.60;;;16.00;99.90;;;;;;5038786;28;20817;-82
2023/09/02 02:05:02;;;;;;;88.87;37.60;;;16.00;99.90;;;;;;5038554;28;20438;-83
2023/09/02 02:07:34;;;;;;;90.73;42.30;;;15.90;99.90;;;;;;5021066;28;20253;-82
2023/09/02 02:10:03;;;;;;;92.10;50.03;;;15.90;99.90;;;;;;5038237;28;20427;-82
2023/09/02 02:12:29;;;;;;;100.10;47.10;;;15.90;99.90;;;;;;5038356;28;20398;-83
2023/09/02 02:14:55;;;;;;;104.97;44.23;;;15.90;99.90;;;;;;5019822;28;20415;-82
2023/09/02 02:17:20;;;;;;;91.13;46.43;;;15.90;99.90;;;;;;5038718;28;20406;-82
2023/09/02 02:19:46;;;;;;;92.67;48.77;;;15.90;99.90;;;;;;5038459;28;20188;-82
2023/09/02 02:22:12;;;;;;;92.53;47.40;;;15.90;99.90;;;;;;5039128;28;20168;-83
2023/09/02 02:24:37;;;;;;;89.27;42.90;;;16.00;99.90;;;;;;5038587;28;20187;-82
2023/09/02 02:27:03;;;;;;;90.17;46.43;;;16.00;99.90;;;;;;5038359;28;20195;-83
2023/09/02 02:29:29;;;;;;;92.63;46.77;;;15.90;99.90;;;;;;5020030;28;20231;-83
2023/09/02 02:31:55;;;;;;;90.70;47.23;;;15.90;99.90;;;;;;5020415;28;20470;-83
2023/09/02 02:34:23;;;;;;;90.80;49.37;;;15.80;99.90;;;;;;5037853;28;20159;-82
2023/09/02 02:36:49;;;;;;;93.50;60.00;;;15.80;99.90;;;;;;5020334;28;20445;-82
2023/09/02 02:39:15;;;;;;;93.77;57.10;;;15.80;99.90;;;;;;5037767;28;20426;-83
2023/09/02 02:41:41;;;;;;;88.90;46.50;;;15.70;99.90;;;;;;5037708;28;20404;-83
2023/09/02 02:44:06;;;;;;;91.27;49.13;;;15.70;99.90;;;;;;5037906;28;20255;-83
2023/09/02 02:46:35;;;;;;;92.37;54.53;;;15.70;99.90;;;;;;5038110;28;20917;-83
2023/09/02 02:49:03;;;;;;;90.57;52.40;;;15.70;99.90;;;;;;5037732;28;20166;-82
2023/09/02 02:51:29;;;;;;;89.87;50.43;;;15.70;99.90;;;;;;5037866;28;20423;-83
2023/09/02 02:53:55;;;;;;;89.93;53.93;;;15.70;99.90;;;;;;5037656;28;20460;-82
2023/09/02 02:56:20;;;;;;;94.47;58.03;;;15.80;99.90;;;;;;5037769;28;20164;-83
2023/09/02 02:58:46;;;;;;;92.20;54.33;;;15.80;99.90;;;;;;5038110;28;20171;-82
2023/09/02 03:01:12;;;;;;;91.30;54.07;;;15.80;99.90;;;;;;5037164;28;20191;-83
2023/09/02 03:03:38;;;;;;;88.23;51.80;;;15.90;99.90;;;;;;5036926;28;20173;-82
2023/09/02 03:06:05;;;;;;;91.07;54.67;;;15.90;99.90;;;;;;5036927;28;20523;-82
2023/09/02 03:08:31;;;;;;;89.13;49.47;;;16.00;99.90;;;;;;5037409;28;20900;-82
2023/09/02 03:11:00;;;;;;;85.90;45.13;;;15.90;99.90;;;;;;5037268;28;20479;-82
2023/09/02 03:13:28;;;;;;;85.57;44.70;;;15.90;99.90;;;;;;5037557;28;20440;-82
2023/09/02 03:15:55;;;;;;;88.80;40.20;;;15.90;99.90;;;;;;5037456;28;20901;-82
2023/09/02 03:18:21;;;;;;;86.10;40.80;;;15.90;99.90;;;;;;5037417;28;20492;-82
2023/09/02 03:20:47;;;;;;;84.63;37.23;;;15.90;99.90;;;;;;5037508;28;20448;-82
2023/09/02 03:23:14;;;;;;;83.23;39.47;;;15.90;99.90;;;;;;5036942;28;20749;-83
2023/09/02 03:25:39;;;;;;;84.17;39.10;;;15.80;99.90;;;;;;5036673;28;20194;-82
2023/09/02 03:28:05;;;;;;;81.50;37.20;;;15.80;99.90;;;;;;5037099;28;20472;-80
2023/09/02 03:30:31;;;;;;;86.90;45.40;;;15.70;99.90;;;;;;5019502;28;20190;-80
2023/09/02 03:32:57;;;;;;;86.37;38.47;;;15.70;99.90;;;;;;5036962;28;20402;-80
2023/09/02 03:35:23;;;;;;;90.30;44.27;;;15.70;99.90;;;;;;5036598;28;20401;-80
2023/09/02 03:37:48;;;;;;;86.87;46.13;;;15.60;99.90;;;;;;5036952;28;20172;-80
2023/09/02 03:40:15;;;;;;;95.03;49.60;;;15.60;99.90;;;;;;5018926;28;20278;-81
2023/09/02 03:42:41;;;;;;;94.60;49.50;;;15.50;99.90;;;;;;5037032;28;20179;-80
2023/09/02 03:45:10;;;;;;;99.63;58.77;;;15.60;99.90;;;;;;5036995;28;21013;-80
2023/09/02 03:47:36;;;;;;;108.53;68.60;;;15.60;99.90;;;;;;5036569;28;20395;-80
2023/09/02 03:50:06;;;;;;;106.17;79.93;;;15.50;99.90;;;;;;5037278;28;20480;-80
2023/09/02 03:52:32;;;;;;;100.87;70.13;;;15.50;99.90;;;;;;5036775;28;20408;-80
2023/09/02 03:54:58;;;;;;;107.47;75.73;;;15.60;99.90;;;;;;5036734;28;20902;-80
2023/09/02 03:57:24;;;;;;;103.50;66.53;;;15.60;99.90;;;;;;5036658;28;20170;-80
2023/09/02 03:59:50;;;;;;;102.73;72.03;;;15.60;99.90;;;;;;5037146;28;20941;-80
2023/09/02 04:02:15;;;;;;;108.97;70.23;;;15.60;99.90;;;;;;5036394;28;20498;-80
2023/09/02 04:04:41;;;;;;;103.43;66.93;;;15.60;99.90;;;;;;5036395;28;20183;-80
2023/09/02 04:07:07;;;;;;;101.50;72.47;;;15.60;99.90;;;;;;5036399;28;20241;-80
2023/09/02 04:09:34;;;;;;;105.70;74.87;;;15.60;99.90;;;;;;5036281;28;20224;-80
2023/09/02 04:12:00;;;;;;;98.03;69.03;;;15.50;99.90;;;;;;5036151;28;20170;-80
2023/09/02 04:14:26;;;;;;;106.03;69.77;;;15.60;99.90;;;;;;5036569;28;20900;-80
2023/09/02 04:16:55;;;;;;;109.03;69.37;;;15.50;99.90;;;;;;5035982;28;20450;-80
2023/09/02 04:19:22;;;;;;;100.40;68.37;;;15.50;99.90;;;;;;5035859;28;20404;-80
2023/09/02 04:21:49;;;;;;;100.47;68.90;;;15.60;99.90;;;;;;5018270;28;20411;-80
2023/09/02 04:24:14;;;;;;;100.20;75.77;;;15.60;99.90;;;;;;5035894;28;20390;-80
2023/09/02 04:26:40;;;;;;;101.20;73.20;;;15.50;99.90;;;;;;5035761;28;20909;-80
2023/09/02 04:29:06;;;;;;;105.50;73.80;;;15.50;99.90;;;;;;5036370;28;20402;-80
2023/09/02 04:31:31;;;;;;;102.80;73.97;;;15.50;99.90;;;;;;5036015;28;20671;-79
2023/09/02 04:33:57;;;;;;;97.83;72.47;;;15.50;99.90;;;;;;5035735;28;20195;-80
2023/09/02 04:36:23;;;;;;;100.37;72.73;;;15.50;99.90;;;;;;5036130;28;20263;-80
2023/09/02 04:38:51;;;;;;;102.73;75.50;;;15.60;99.90;;;;;;5038302;28;20204;-80
2023/09/02 04:41:17;;;;;;;114.10;82.80;;;15.60;99.90;;;;;;5039674;28;20210;-79
2023/09/02 04:43:42;;;;;;;98.90;74.77;;;15.60;99.90;;;;;;5040111;28;20422;-80
2023/09/02 04:46:08;;;;;;;102.10;72.67;;;15.60;99.90;;;;;;5040246;28;20240;-80
2023/09/02 04:48:34;;;;;;;107.33;74.43;;;15.60;99.90;;;;;;5039671;28;20212;-80
2023/09/02 04:51:00;;;;;;;109.10;78.03;;;15.60;99.90;;;;;;5039839;28;20721;-80
2023/09/02 04:53:25;;;;;;;107.80;75.07;;;15.60;99.90;;;;;;5039510;28;20273;-79
2023/09/02 04:55:51;;;;;;;99.80;75.63;;;15.60;99.90;;;;;;5039824;28;20411;-80
2023/09/02 04:58:20;;;;;;;106.97;81.13;;;15.60;99.90;;;;;;5039967;28;20177;-80
2023/09/02 05:00:45;;;;;;;114.57;84.10;;;15.50;99.90;;;;;;5039854;28;20422;-79
2023/09/02 05:03:11;;;;;;;100.10;75.40;;;15.50;99.90;;;;;;5039648;28;20908;-79
2023/09/02 05:05:37;;;;;;;105.80;79.17;;;15.50;99.90;;;;;;5039299;28;20182;-79
2023/09/02 05:08:03;;;;;;;102.73;79.57;;;15.50;99.90;;;;;;5039281;28;20164;-79
2023/09/02 05:10:29;;;;;;;118.97;79.37;;;15.50;99.90;;;;;;5039387;28;20421;-79
2023/09/02 05:12:57;;;;;;;114.63;82.23;;;15.50;99.90;;;;;;5039442;28;20438;-80
2023/09/02 05:15:23;;;;;;;111.77;84.60;;;15.60;99.90;;;;;;5039307;28;20437;-79
2023/09/02 05:17:52;;;;;;;111.87;76.27;;;15.60;99.90;;;;;;5039047;28;20929;-80
2023/09/02 05:20:19;;;;;;;111.33;81.93;;;15.70;99.90;;;;;;5039335;28;20199;-80
2023/09/02 05:22:44;;;;;;;120.50;105.27;;;15.60;99.90;;;;;;5021387;28;20425;-80
2023/09/02 05:25:10;;;;;;;115.27;84.47;;;15.60;99.90;;;;;;5038691;28;20445;-80
2023/09/02 05:27:41;;;;;;;110.40;86.83;;;15.70;99.90;;;;;;5039512;28;20243;-79
2023/09/02 05:30:07;;;;;;;113.70;85.30;;;15.70;99.90;;;;;;5038870;28;20187;-79
2023/09/02 05:32:33;;;;;;;119.30;90.70;;;15.70;99.90;;;;;;5038660;28;20407;-79
2023/09/02 05:34:58;;;;;;;116.57;88.83;;;15.70;99.90;;;;;;5038634;28;20917;-79
2023/09/02 05:37:24;;;;;;;112.10;82.50;;;15.70;99.90;;;;;;5038879;28;20405;-79
2023/09/02 05:39:50;;;;;;;113.03;83.47;;;15.70;99.90;;;;;;5038712;28;20183;-79
2023/09/02 05:42:15;;;;;;;112.10;88.67;;;15.70;99.90;;;;;;5038847;28;20589;-79
2023/09/02 05:44:42;;;;;;;113.40;86.20;;;15.70;99.90;;;;;;5038556;28;20179;-80
2023/09/02 05:47:07;;;;;;;113.37;94.27;;;15.70;99.90;;;;;;5021091;28;20167;-79
2023/09/02 05:49:37;;;;;;;115.97;87.47;;;15.80;99.90;;;;;;5037295;28;20755;-80
2023/09/02 05:52:05;;;;;;;112.77;88.13;;;15.80;99.90;;;;;;5038888;28;20530;-80
2023/09/02 05:54:30;;;;;;;109.87;75.23;;;15.80;99.90;;;;;;5038685;28;20543;-79
2023/09/02 05:56:56;;;;;;;116.40;89.47;;;15.80;99.90;;;;;;5038358;28;20457;-79
2023/09/02 05:59:21;;;;;;;116.37;99.07;;;15.70;99.90;;;;;;5038499;28;20187;-79
2023/09/02 06:01:47;;;;;;;114.60;93.97;;;15.70;99.90;;;;;;5020413;28;20176;-79
2023/09/02 06:04:13;;;;;;;126.13;87.37;;;15.80;99.90;;;;;;5038136;28;20166;-79
2023/09/02 06:06:38;;;;;;;115.63;92.70;;;15.80;99.90;;;;;;5037900;28;20217;-79
2023/09/02 06:09:04;;;;;;;118.50;86.27;;;15.80;99.90;;;;;;5020341;28;20258;-79
2023/09/02 06:11:31;;;;;;;116.27;92.73;;;15.80;99.90;;;;;;5038216;28;20258;-79
2023/09/02 06:13:56;;;;;;;113.93;87.47;;;15.90;99.90;;;;;;5038077;28;20478;-79
2023/09/02 06:16:22;;;;;;;115.73;88.37;;;16.10;99.90;;;;;;5037674;28;20441;-79
2023/09/02 06:18:48;;;;;;;116.03;88.50;;;16.10;99.90;;;;;;5037381;28;20183;-79
2023/09/02 06:21:14;;;;;;;118.40;94.70;;;16.10;99.90;;;;;;5036980;28;20197;-79
2023/09/02 06:23:44;;;;;;;115.57;93.50;;;16.10;99.90;;;;;;5036773;28;20170;-79
2023/09/02 06:26:11;;;;;;;110.03;88.23;;;16.10;99.90;;;;;;5036714;28;20438;-79
2023/09/02 06:28:37;;;;;;;114.43;89.73;;;16.10;99.90;;;;;;5036994;28;20403;-79
2023/09/02 06:31:07;;;;;;;115.07;85.20;;;16.10;99.90;;;;;;5036856;28;20418;-79
2023/09/02 06:33:33;;;;;;;115.53;91.13;;;16.10;99.90;;;;;;5036492;28;20398;-80
2023/09/02 06:35:59;;;;;;;113.47;88.27;;;16.10;99.90;;;;;;5036561;28;20406;-79
2023/09/02 06:38:25;;;;;;;115.10;98.30;;;16.10;99.90;;;;;;5037121;28;20216;-79
2023/09/02 06:40:50;;;;;;;116.40;102.07;;;16.10;99.90;;;;;;5036423;28;20249;-79
2023/09/02 06:43:16;;;;;;;111.07;84.97;;;16.10;99.90;;;;;;5107616;23;20311;-82
2023/09/02 06:45:42;;;;;;;115.37;97.13;;;16.20;99.90;;;;;;5038124;28;20190;-82
2023/09/02 06:48:08;;;;;;;115.87;93.90;;;16.30;99.90;;;;;;5038077;28;20677;-82
2023/09/02 06:50:33;;;;;;;113.63;91.17;;;16.30;99.90;;;;;;5038428;28;20199;-82
2023/09/02 06:52:59;;;;;;;118.93;101.20;;;16.30;99.90;;;;;;5037608;28;20776;-82
2023/09/02 06:55:25;;;;;;;120.30;95.70;;;16.30;99.90;;;;;;5037559;28;20168;-82
2023/09/02 06:57:50;;;;;;;117.67;90.90;;;16.40;99.90;;;;;;5037572;28;20141;-82
2023/09/02 07:00:16;;;;;;;116.47;103.60;;;16.40;99.90;;;;;;5037091;28;20185;-82
2023/09/02 07:02:42;;;;;;;113.67;86.67;;;16.60;99.90;;;;;;5018747;28;20166;-82
2023/09/02 07:05:08;;;;;;;115.90;95.80;;;16.60;99.90;;;;;;5018938;28;20564;-82
2023/09/02 07:07:36;;;;;;;116.50;89.57;;;16.70;99.90;;;;;;5037615;28;20407;-82
2023/09/02 07:10:03;;;;;;;114.27;88.43;;;16.70;99.90;;;;;;5037178;28;20430;-82
2023/09/02 07:12:28;;;;;;;118.77;93.90;;;16.70;99.90;;;;;;5037113;28;20872;-82
2023/09/02 07:14:54;;;;;;;112.47;91.07;;;16.80;99.90;;;;;;5019274;28;20439;-82
2023/09/02 07:17:20;;;;;;;114.47;87.03;;;16.90;99.90;;;;;;5019501;28;20173;-82
2023/09/02 07:19:45;;;;;;;108.17;78.53;;;17.10;99.90;;;;;;5019129;28;20193;-82
2023/09/02 07:22:11;;;;;;;107.17;85.97;;;17.10;99.90;;;;;;5036512;28;20169;-82
2023/09/02 07:24:37;;;;;;;105.50;75.00;;;17.20;99.90;;;;;;5037247;28;20221;-82
2023/09/02 07:27:03;;;;;;;100.57;72.07;;;17.30;99.90;;;;;;5037303;28;20764;-82
2023/09/02 07:29:28;;;;;;;101.70;76.57;;;17.30;99.90;;;;;;5037084;28;20190;-82
2023/09/02 07:31:56;;;;;;;99.93;72.37;;;17.30;99.90;;;;;;5019556;28;20169;-83
2023/09/02 07:34:21;;;;;;;99.93;61.23;;;17.40;99.90;;;;;;5037220;28;20153;-83
2023/09/02 07:36:47;;;;;;;91.87;42.30;;;17.40;99.90;;;;;;5037072;28;20460;-83
2023/09/02 07:39:16;;;;;;;91.40;40.27;;;17.50;99.90;;;;;;5018576;28;20195;-83
2023/09/02 07:41:41;;;;;;;85.60;37.00;;;17.50;99.90;;;;;;5036247;28;20153;-82
2023/09/02 07:44:08;;;;;;;83.90;33.77;;;17.50;99.90;;;;;;5035970;28;20479;-83
2023/09/02 07:46:34;;;;;;;88.30;41.10;;;17.50;99.90;;;;;;5036892;28;20189;-84
2023/09/02 07:49:00;;;;;;;85.97;36.97;;;17.60;99.90;;;;;;5018253;28;20416;-83
2023/09/02 07:51:25;;;;;;;87.30;38.70;;;17.70;99.90;;;;;;5035576;28;20235;-82
2023/09/02 07:53:51;;;;;;;88.97;38.87;;;17.80;99.90;;;;;;5036240;28;20185;-84
2023/09/02 07:56:17;;;;;;;84.03;31.80;;;18.00;99.90;;;;;;5035769;28;20161;-82
2023/09/02 07:58:46;;;;;;;86.83;36.50;;;18.00;99.90;;;;;;5035555;28;20176;-83
2023/09/02 08:01:12;;;;;;;83.70;31.97;;;18.00;99.90;;;;;;5017136;28;20428;-82
2023/09/02 08:03:38;;;;;;;88.97;44.67;;;18.10;99.90;;;;;;5035284;28;20945;-83
2023/09/02 08:06:08;;;;;;;86.07;38.07;;;18.00;99.90;;;;;;5034914;28;20435;-82
2023/09/02 08:08:34;;;;;;;81.07;23.93;;;18.00;99.90;;;;;;5016896;28;20255;-82
2023/09/02 08:11:01;;;;;;;82.60;27.00;;;18.00;99.90;;;;;;5035245;28;20519;-82
2023/09/02 08:13:27;;;;;;;80.83;24.13;;;18.10;99.90;;;;;;5034912;28;20463;-83
2023/09/02 08:15:53;;;;;;;80.97;24.90;;;18.20;99.90;;;;;;5035620;28;20400;-83
2023/09/02 08:18:18;;;;;;;81.43;24.50;;;18.30;99.90;;;;;;5035740;28;20169;-83
2023/09/02 08:20:44;;;;;;;80.30;22.50;;;18.40;99.90;;;;;;5035929;28;20741;-83
2023/09/02 08:23:09;;;;;;;86.10;24.53;;;18.50;99.90;;;;;;5035773;28;20168;-83
2023/09/02 08:25:35;;;;;;;80.87;22.83;;;18.60;99.90;;;;;;5017566;28;20669;-83
2023/09/02 08:28:01;;;;;;;81.80;24.70;;;18.60;99.90;;;;;;5017590;28;20660;-83
2023/09/02 08:30:26;;;;;;;78.73;21.60;;;18.70;99.90;;;;;;5017624;28;20186;-82
2023/09/02 08:32:52;;;;;;;80.20;23.27;;;18.60;99.90;;;;;;5035269;28;20191;-82
2023/09/02 08:35:18;;;;;;;81.10;31.10;;;18.60;99.90;;;;;;5034899;28;20529;-83
2023/09/02 08:37:43;;;;;;;77.50;22.40;;;18.70;99.90;;;;;;5035521;28;20649;-83
2023/09/02 08:40:09;;;;;;;79.77;20.57;;;18.60;99.90;;;;;;5036304;28;20221;-82
2023/09/02 08:42:38;;;;;;;84.47;26.40;;;18.80;99.90;;;;;;5036272;28;20172;-83
2023/09/02 08:45:11;;;;;;;80.40;25.90;;;18.80;99.90;;;;;;5036114;28;20429;-83
2023/09/02 08:47:39;;;;;;;79.97;27.20;;;18.90;99.90;;;;;;5036668;28;20431;-83
2023/09/02 08:50:09;;;;;;;88.70;26.30;;;18.90;99.90;;;;;;5018067;28;20834;-83
2023/09/02 08:52:36;;;;;;;81.70;30.60;;;19.00;99.90;;;;;;5036305;28;20431;-83
2023/09/02 08:55:03;;;;;;;79.87;29.20;;;19.00;99.90;;;;;;5036063;28;20400;-83
2023/09/02 08:57:30;;;;;;;76.50;20.63;;;19.00;99.90;;;;;;5035721;28;20422;-83
2023/09/02 08:59:55;;;;;;;77.00;22.40;;;19.10;99.90;;;;;;5036151;28;20420;-83
2023/09/02 09:02:21;;;;;;;78.47;21.90;;;19.20;99.90;;;;;;5035643;28;20421;-83
2023/09/02 09:04:48;;;;;;;80.67;29.93;;;19.20;99.90;;;;;;5017576;28;20267;-83
2023/09/02 09:07:18;;;;;;;86.73;33.83;;;19.20;99.90;;;;;;5036121;28;20396;-83
2023/09/02 09:09:45;;;;;;;81.83;29.17;;;19.30;99.90;;;;;;5035590;28;20426;-83
2023/09/02 09:12:12;;;;;;;80.47;26.90;;;19.40;99.90;;;;;;5035748;28;20795;-83
2023/09/02 09:14:43;;;;;;;82.40;33.83;;;19.40;99.90;;;;;;5017900;28;20430;-83
2023/09/02 09:17:10;;;;;;;86.90;38.97;;;19.50;99.90;;;;;;5017881;28;20408;-83
2023/09/02 09:19:36;;;;;;;84.17;38.87;;;19.60;99.90;;;;;;5018022;28;20438;-83
2023/09/02 09:22:02;;;;;;;84.27;37.67;;;19.70;99.90;;;;;;5036099;28;20399;-83
2023/09/02 09:24:29;;;;;;;83.57;41.47;;;19.70;99.90;;;;;;5037379;28;20404;-83
2023/09/02 09:26:57;;;;;;;83.57;41.27;;;19.80;99.90;;;;;;5039631;28;20416;-83
2023/09/02 09:29:23;;;;;;;81.90;36.70;;;19.80;99.90;;;;;;5039427;28;20392;-84
2023/09/02 09:31:49;;;;;;;85.20;40.20;;;20.00;99.90;;;;;;5039343;28;20906;-83
2023/09/02 09:34:14;;;;;;;83.67;36.33;;;20.10;99.90;;;;;;5039853;28;20165;-84
2023/09/02 09:36:40;;;;;;;83.23;38.37;;;20.20;99.90;;;;;;5039441;28;20173;-83
2023/09/02 09:39:08;;;;;;;82.60;39.77;;;20.30;99.90;;;;;;5021844;28;20205;-84
2023/09/02 09:41:37;;;;;;;84.53;43.63;;;20.30;99.90;;;;;;5021361;28;20180;-83
2023/09/02 09:44:16;;;;;;;93.63;44.50;;;20.40;99.90;;;;;;5021141;28;20965;-84
2023/09/02 09:46:53;;;;;;;85.20;44.00;;;20.40;99.90;;;;;;5021117;28;20439;-83
2023/09/02 09:49:27;;;;;;;80.30;32.40;;;20.50;99.90;;;;;;5039392;28;20414;-83
2023/09/02 09:52:01;;;;;;;77.70;25.43;;;20.70;99.90;;;;;;5021249;28;20427;-83
2023/09/02 09:54:52;;;;;;;89.87;52.50;;;20.90;99.90;;;;;;5021405;28;20755;-83
2023/09/02 09:57:34;;;;;;;86.90;47.13;;;21.20;99.90;;;;;;5029646;28;20401;-83
2023/09/02 10:00:00;;;;;;;85.13;34.37;;;21.20;99.90;;;;;;5038388;28;20511;-84
2023/09/02 10:02:26;;;;;;;96.20;67.37;;;21.30;99.90;;;;;;5022293;28;20892;-80
2023/09/02 10:04:59;;;;;;;183.73;169.33;;;21.30;99.90;;;;;;5039521;28;20453;-82
2023/09/02 10:07:32;;;;;;;144.50;130.77;;;21.50;99.90;;;;;;5021737;28;20427;-79
2023/09/02 10:10:00;;;;;;;210.33;195.27;;;21.60;99.90;;;;;;5021023;28;20431;-84
2023/09/02 10:12:33;;;;;;;201.67;187.07;;;21.80;99.90;;;;;;5039058;28;20400;-82
2023/09/02 10:14:59;;;;;;;200.27;185.80;;;22.00;99.90;;;;;;5021206;28;20401;-84
2023/09/02 10:17:26;;;;;;;166.03;152.57;;;22.20;99.90;;;;;;5020434;28;20416;-82
2023/09/02 10:19:52;;;;;;;202.47;187.83;;;22.40;99.90;;;;;;5038152;28;20428;-82
2023/09/02 10:22:21;;;;;;;177.40;163.40;;;22.50;99.90;;;;;;5038738;28;20411;-82
2023/09/02 10:25:03;;;;;;;199.97;185.57;;;22.60;99.90;;;;;;5020571;28;20196;-82
2023/09/02 10:27:35;;;;;;;122.03;110.03;;;22.80;99.90;;;;;;5038520;28;20369;-82
2023/09/02 10:30:02;;;;;;;74.80;16.70;;;23.20;99.90;;;;;;5038432;28;20566;-82
2023/09/02 10:32:41;;;;;;;69.93;6.97;;;23.40;99.90;;;;;;5020135;28;20404;-82
2023/09/02 10:35:07;;;;;;;71.70;9.83;;;23.60;99.90;;;;;;5038135;28;20397;-82
2023/09/02 10:37:58;;;;;;;72.20;9.40;;;23.90;99.90;;;;;;5037425;28;20412;-82
2023/09/02 10:40:26;;;;;;;74.63;14.23;;;24.20;98.70;;;;;;5013210;28;20436;-82
2023/09/02 10:42:53;;;;;;;75.00;17.43;;;24.30;60.20;;;;;;5038334;28;20482;-82
2023/09/02 10:45:19;;;;;;;74.63;17.10;;;24.50;69.20;;;;;;5019936;28;20444;-81
2023/09/02 10:47:45;;;;;;;74.13;16.73;;;24.60;82.50;;;;;;5037994;28;20925;-82
2023/09/02 10:50:14;;;;;;;74.57;12.00;;;24.80;56.20;;;;;;5038477;28;20661;-82
2023/09/02 10:52:39;;;;;;;70.60;8.53;;;24.90;41.50;;;;;;5020315;28;20464;-84
2023/09/02 10:55:08;;;;;;;75.00;8.97;;;25.10;38.10;;;;;;5020732;28;20421;-84
2023/09/02 10:57:58;;;;;;;70.63;6.40;;;25.20;36.50;;;;;;5038256;28;20165;-84
2023/09/02 11:00:28;;;;;;;71.60;9.47;;;25.30;23.10;;;;;;5012996;28;20432;-83
2023/09/02 11:02:58;;;;;;;70.87;8.23;;;25.00;18.80;;;;;;5019964;28;20420;-82
2023/09/02 11:05:28;;;;;;;71.73;7.43;;;24.60;37.10;;;;;;5019398;28;21052;-83
2023/09/02 11:07:54;;;;;;;70.07;7.10;;;24.40;47.00;;;;;;5020370;28;20405;-82
2023/09/02 11:10:21;;;;;;;72.10;7.00;;;24.20;64.90;;;;;;5037709;28;20421;-83
2023/09/02 11:13:06;;;;;;;72.43;7.73;;;24.50;60.00;;;;;;5019733;28;20416;-84
2023/09/02 11:15:36;;;;;;;71.07;7.90;;;24.80;49.80;;;;;;5019524;28;20828;-83
2023/09/02 11:18:28;;;;;;;72.13;12.70;;;25.10;33.10;;;;;;5037712;28;20400;-83
2023/09/02 11:20:54;;;;;;;72.73;10.43;;;25.30;19.90;;;;;;5010828;28;20432;-82
2023/09/02 11:23:23;;;;;;;77.20;18.23;;;25.40;27.10;;;;;;5036459;28;20418;-83
2023/09/02 11:26:00;;;;;;;75.17;12.67;;;25.70;22.90;;;;;;5036166;28;20211;-83
2023/09/02 11:28:27;;;;;;;73.87;14.20;;;25.60;1.00;;;;;;5036089;28;20382;-83
2023/09/02 11:31:12;;;;;;;72.37;11.87;;;25.70;1.00;;;;;;5018395;28;21020;-83
2023/09/02 11:33:45;;;;;;;72.00;8.83;;;25.70;1.00;;;;;;5018202;28;20415;-83
2023/09/02 11:36:14;;;;;;;71.60;8.93;;;25.50;1.00;;;;;;5036023;28;20401;-83
2023/09/02 11:38:39;;;;;;;71.93;10.87;;;25.70;5.80;;;;;;5035854;28;20417;-83
2023/09/02 11:41:07;;;;;;;73.13;9.93;;;25.90;3.50;;;;;;5035613;28;20425;-83
2023/09/02 11:43:34;;;;;;;71.37;11.20;;;26.20;1.00;;;;;;5036226;28;20719;-82
2023/09/02 11:46:01;;;;;;;70.33;7.43;;;26.30;6.90;;;;;;5035482;28;21015;-83
2023/09/02 11:48:30;;;;;;;71.40;7.37;;;26.60;1.00;;;;;;5018032;28;20914;-83
2023/09/02 11:51:00;;;;;;;70.10;7.20;;;26.80;1.00;;;;;;5017557;28;20426;-83
2023/09/02 11:53:30;;;;;;;69.50;6.27;;;26.80;1.00;;;;;;5035478;28;20396;-83
2023/09/02 11:55:59;;;;;;;71.00;6.67;;;27.00;1.00;;;;;;5017826;28;20427;-83
2023/09/02 11:58:24;;;;;;;69.57;6.90;;;26.80;1.00;;;;;;5035272;28;20419;-83
2023/09/02 12:00:50;;;;;;;70.57;7.30;;;26.40;1.00;;;;;;5017240;28;20543;-82
2023/09/02 12:03:27;;;;;;;70.00;5.87;;;26.70;1.00;;;;;;5035577;28;20165;-83
2023/09/02 12:05:58;;;;;;;69.40;3.67;;;27.10;1.00;;;;;;5017693;28;20184;-83
2023/09/02 12:08:25;;;;;;;68.40;2.67;;;27.30;1.00;;;;;;5017552;28;20396;-82
2023/09/02 12:10:51;;;;;;;70.57;3.10;;;27.40;1.00;;;;;;5035426;28;20439;-82
2023/09/02 12:13:17;;;;;;;69.67;2.97;;;27.20;1.00;;;;;;5035814;28;20403;-82
2023/09/02 12:15:51;;;;;;;69.17;3.80;;;27.30;1.00;;;;;;5017757;28;20408;-82
2023/09/02 12:18:21;;;;;;;69.70;4.50;;;27.50;1.00;;;;;;5035848;28;20422;-83
2023/09/02 12:20:47;;;;;;;70.90;4.50;;;27.60;1.00;;;;;;5018897;28;20424;-83
2023/09/02 12:23:13;;;;;;;70.30;4.93;;;27.50;1.00;;;;;;5018247;28;20457;-83
2023/09/02 12:25:40;;;;;;;70.93;6.20;;;27.80;1.00;;;;;;5036445;28;20440;-83
2023/09/02 12:28:14;;;;;;;69.20;4.77;;;27.60;1.00;;;;;;5036256;28;20407;-83
2023/09/02 12:30:41;;;;;;;69.70;5.40;;;27.60;1.00;;;;;;5035971;28;20424;-83